CST,Max TemperatureF,Mean TemperatureF,Min TemperatureF,Max Dew PointF,MeanDew PointF,Min DewpointF,Max Humidity, Mean Humidity, Min Humidity, Max Sea Level PressureIn, Mean Sea Level PressureIn, Min Sea Level PressureIn, Max VisibilityMiles, Mean VisibilityMiles, Min VisibilityMiles, Max Wind SpeedMPH, Mean Wind SpeedMPH, Max Gust SpeedMPH,PrecipitationIn, CloudCover, Events, WindDirDegrees
2011-11-1,72,54,36,44,36,31,86,56,23,30.29,30.23,30.20,10,10,10,12,2,,0.00,0,,73
2011-11-2,72,56,39,47,40,34,86,61,32,30.32,30.24,30.18,10,10,10,12,2,,0.00,0,,100
2011-11-3,73,60,46,65,52,39,93,81,61,30.17,30.00,29.90,10,9,2,17,7,25,0.25,5,Rain,243
2011-11-4,64,55,46,45,41,38,83,66,45,30.11,30.04,30.00,10,10,10,13,8,23,0.00,4,Rain,328
2011-11-5,68,54,41,46,38,31,93,61,28,30.25,30.17,30.11,10,10,7,12,5,17,0.00,0,,61
2011-11-6,71,58,45,52,45,34,76,65,51,30.35,30.28,30.23,10,10,10,9,6,,0.00,2,,74
2011-11-7,73,62,51,53,51,49,92,65,45,30.31,30.24,30.16,10,10,10,13,4,,0.00,1,,88
2011-11-8,78,68,57,54,52,50,81,60,37,30.19,30.12,30.06,10,10,10,14,5,20,0.00,2,,119
2011-11-9,75,65,54,65,57,50,93,84,57,30.09,30.04,29.96,10,9,2,14,6,23,0.30,4,Rain-Hail,302
2011-11-10,57,50,42,48,33,24,86,56,30,30.20,30.12,30.04,10,10,10,17,11,24,0.00,0,Rain,324
2011-11-11,63,48,32,35,28,22,89,57,23,30.28,30.23,30.19,10,10,10,7,3,,0.00,0,Rain,336
2011-11-12,64,46,28,37,31,26,89,59,27,30.32,30.25,30.19,10,10,10,8,1,,0.00,0,Rain,160
2011-11-13,73,60,46,58,51,39,87,70,55,30.21,30.14,30.07,10,10,10,12,4,21,0.00,1,Rain,157
2011-11-14,75,68,62,65,63,57,96,82,68,30.10,30.04,29.97,10,10,7,14,7,21,0.00,3,Rain,170
2011-11-15,77,72,66,70,67,64,96,88,71,30.00,29.93,29.88,10,10,5,10,7,28,0.02,6,Rain-Hail-Thunderstorm,165
2011-11-16,79,72,62,70,67,57,96,85,62,29.94,29.85,29.78,10,9,1,23,8,37,0.45,5,Rain-Hail-Thunderstorm,215
2011-11-17,61,48,36,55,39,26,87,62,26,30.32,30.16,29.96,10,10,10,16,11,24,0.00,3,Rain,332
2011-11-18,64,50,35,41,33,23,64,54,43,30.36,30.29,30.24,10,10,10,13,7,17,0.00,0,Rain,78
2011-11-19,66,57,48,58,51,39,93,74,63,30.28,30.22,30.18,10,10,10,10,6,,0.00,5,Rain,112
2011-11-20,75,66,57,65,62,56,100,91,69,30.28,30.24,30.20,10,6,0,7,3,,0.00,5,Fog-Rain-Hail,161
2011-11-21,81,68,55,64,60,55,100,83,52,30.27,30.19,30.10,10,7,0,9,2,,0.00,3,Fog-Rain-Hail,181
2011-11-22,77,66,55,69,63,55,97,89,66,30.11,30.03,29.95,10,8,0,13,4,20,0.27,3,Fog-Rain-Hail-Thunderstorm,196
2011-11-23,66,58,48,63,54,45,96,81,52,30.23,30.10,30.02,10,10,8,17,7,24,0.03,5,Rain,322
2011-11-24,69,55,41,44,39,32,93,66,25,30.33,30.29,30.22,10,10,10,10,5,,0.00,0,Rain,41
2011-11-25,71,54,37,49,43,34,89,69,44,30.33,30.25,30.17,10,10,10,9,2,18,0.00,1,,137
2011-11-26,77,64,52,57,52,47,83,63,42,30.20,30.11,30.01,10,10,10,14,5,22,0.00,2,Hail,141
2011-11-27,68,59,48,65,60,47,97,93,73,29.98,29.90,29.85,10,6,1,17,8,26,2.42,7,Rain,199
2011-11-28,46,42,39,45,40,35,97,87,68,29.94,29.88,29.83,10,9,5,15,9,21,0.31,7,Rain,258
2011-11-29,48,42,37,36,34,32,86,76,56,30.10,29.98,29.91,10,10,10,16,8,23,0.00,6,,269
2011-11-30,50,40,30,34,33,27,92,76,50,30.21,30.14,30.08,10,10,10,12,5,,0.00,4,,331